Time;durP1;ratioP1;P1;durP2;ratioP2;P2;SDS_P1;SDS_P2;PMS_P1;PMS_P2;Temp;Humidity;BMP_temperature;BMP_pressure;BME280_temperature;BME280_humidity;BME280_pressure;Samples;Min_cycle;Max_cycle;Signal;HPM_P1;HPM_P2
2022/03/31 00:00:18;;;;;;;13.13;4.47;;;;;;;11.82;62.51;92172.03;5012443;28;20084;-81
2022/03/31 00:02:45;;;;;;;13.18;4.88;;;;;;;11.84;62.50;92176.91;5012175;28;20076;-81
2022/03/31 00:05:14;;;;;;;19.05;4.00;;;;;;;11.85;62.86;92170.78;5012052;28;20502;-80
2022/03/31 00:07:51;;;;;;;11.75;4.63;;;;;;;11.71;63.00;92160.09;5012263;28;20399;-80
2022/03/31 00:10:23;;;;;;;18.63;4.90;;;;;;;11.85;63.14;92163.06;5012204;28;20048;-79
2022/03/31 00:12:52;;;;;;;10.90;4.15;;;;;;;11.76;63.44;92157.56;5012188;28;20065;-80
2022/03/31 00:15:20;;;;;;;10.50;3.85;;;;;;;11.68;63.87;92156.22;5012256;28;20046;-80
2022/03/31 00:17:47;;;;;;;11.55;3.97;;;;;;;11.80;64.17;92166.34;5012446;28;20046;-80
2022/03/31 00:33:42;;;;;;;12.38;4.40;;;;;;;11.76;65.31;92149.84;5011847;28;20049;-80
2022/03/31 00:36:09;;;;;;;13.07;4.60;;;;;;;11.79;65.04;92136.50;5008667;28;20042;-80
2022/03/31 00:38:36;;;;;;;15.95;5.28;;;;;;;11.75;65.57;92128.50;5010285;28;20435;-80
2022/03/31 00:41:03;;;;;;;11.07;4.60;;;;;;;11.64;65.43;92126.84;5011538;28;20050;-80
2022/03/31 00:43:29;;;;;;;17.65;4.80;;;;;;;11.68;65.56;92132.28;5011594;28;20748;-79
2022/03/31 00:45:58;;;;;;;8.77;4.35;;;;;;;11.78;65.74;92155.53;5011713;28;20421;-80
2022/03/31 00:48:25;;;;;;;9.18;3.63;;;;;;;11.71;65.33;92153.13;5011391;28;20510;-79
2022/03/31 00:50:54;;;;;;;12.30;4.25;;;;;;;11.82;65.94;92172.03;5013757;28;20131;-80
2022/03/31 00:53:21;;;;;;;15.05;4.97;;;;;;;11.83;65.92;92165.09;5031355;28;20042;-80
2022/03/31 00:55:49;;;;;;;13.65;4.95;;;;;;;11.74;65.94;92133.88;5030879;28;20041;-80
2022/03/31 00:58:16;;;;;;;14.45;4.28;;;;;;;11.84;66.45;92151.97;5030825;28;20077;-80
2022/03/31 01:00:43;;;;;;;10.80;4.03;;;;;;;11.90;65.78;92148.44;5030798;28;20045;-80
2022/03/31 01:03:10;;;;;;;15.20;5.05;;;;;;;11.71;65.76;92116.38;5031044;28;20092;-80
2022/03/31 01:05:39;;;;;;;14.18;4.80;;;;;;;11.90;65.49;92148.44;5031003;28;20088;-80
2022/03/31 01:08:08;;;;;;;17.45;4.55;;;;;;;12.00;65.50;92152.13;5031166;28;20137;-79
2022/03/31 01:10:35;;;;;;;14.50;4.22;;;;;;;11.94;65.60;92129.94;5031059;28;20399;-80
2022/03/31 01:13:06;;;;;;;19.60;5.03;;;;;;;11.83;65.85;92127.28;5026313;28;20088;-80
2022/03/31 01:15:33;;;;;;;15.35;4.65;;;;;;;11.95;66.73;92142.53;5010769;28;20137;-80
2022/03/31 01:17:59;;;;;;;14.77;4.70;;;;;;;11.94;66.35;92130.69;5011528;28;20137;-80
2022/03/31 01:20:26;;;;;;;14.07;5.15;;;;;;;11.92;67.16;92127.59;5010546;28;20042;-79
2022/03/31 01:22:53;;;;;;;11.43;4.00;;;;;;;11.87;67.13;92124.97;5010317;28;20069;-80
2022/03/31 01:25:22;;;;;;;13.85;4.45;;;;;;;11.68;67.22;92103.97;5010528;28;20454;-80
2022/03/31 01:27:49;;;;;;;17.05;4.25;;;;;;;11.74;67.12;92103.78;5011609;28;20483;-80
2022/03/31 01:30:19;;;;;;;10.35;3.92;;;;;;;11.76;67.35;92114.59;5011399;28;20492;-80
2022/03/31 01:32:46;;;;;;;14.68;5.00;;;;;;;11.76;66.80;92111.28;5010861;28;20533;-80
2022/03/31 01:35:14;;;;;;;16.60;4.55;;;;;;;11.62;67.54;92103.94;5009823;28;20602;-80
2022/03/31 01:37:42;;;;;;;17.10;5.30;;;;;;;11.55;67.94;92077.63;5009841;28;20042;-80
2022/03/31 01:40:10;;;;;;;16.70;4.80;;;;;;;11.65;67.71;92096.72;5010728;28;20116;-80
2022/03/31 01:42:39;;;;;;;15.25;4.80;;;;;;;11.62;68.55;92103.94;5011148;28;20541;-80
2022/03/31 01:45:10;;;;;;;9.70;4.78;;;;;;;11.56;68.70;92112.63;5010616;28;20487;-80
2022/03/31 01:47:38;;;;;;;15.90;5.28;;;;;;;11.52;68.75;92108.97;5010589;28;20041;-79
2022/03/31 01:50:06;;;;;;;12.68;3.65;;;;;;;11.60;68.71;92110.34;5010577;28;20056;-80
2022/03/31 01:52:33;;;;;;;12.90;4.50;;;;;;;11.62;68.07;92101.34;5010389;28;20121;-79
2022/03/31 01:55:00;;;;;;;13.35;4.30;;;;;;;11.35;68.17;92060.97;4999726;28;20073;-80
2022/03/31 01:57:27;;;;;;;14.95;5.60;;;;;;;11.48;67.77;92074.50;5010019;28;20369;-81
2022/03/31 01:59:56;;;;;;;25.15;5.07;;;;;;;11.72;67.61;92102.47;5010128;28;20491;-79
2022/03/31 02:02:23;;;;;;;20.90;4.90;;;;;;;11.74;67.33;92103.00;5010967;28;20487;-80
2022/03/31 02:04:50;;;;;;;14.20;4.40;;;;;;;11.56;67.48;92060.38;4993179;28;20053;-81
2022/03/31 02:07:17;;;;;;;12.32;4.55;;;;;;;11.83;66.85;92093.81;5009972;28;20100;-79
2022/03/31 02:09:44;;;;;;;17.77;4.47;;;;;;;11.69;67.59;92069.50;5010227;28;20053;-79
2022/03/31 02:12:11;;;;;;;13.93;4.03;;;;;;;11.67;67.81;92059.47;5009906;28;20092;-79
2022/03/31 02:14:39;;;;;;;16.02;4.80;;;;;;;11.81;67.12;92069.38;5009954;28;20041;-80
2022/03/31 02:17:09;;;;;;;16.52;4.85;;;;;;;11.80;67.66;92078.88;5010436;28;20045;-80
2022/03/31 02:19:36;;;;;;;24.33;5.65;;;;;;;11.52;67.48;92020.78;5010464;28;20056;-80
2022/03/31 02:22:04;;;;;;;19.83;5.47;;;;;;;11.83;67.40;92068.09;5010101;28;20490;-80
2022/03/31 02:24:31;;;;;;;22.00;5.53;;;;;;;11.87;67.24;92076.88;5009817;28;20046;-80
2022/03/31 02:26:59;;;;;;;13.25;5.40;;;;;;;11.35;67.59;91990.81;5009651;28;20093;-80
2022/03/31 02:29:26;;;;;;;22.40;5.22;;;;;;;11.86;67.54;92059.13;5009691;28;20084;-80
2022/03/31 02:31:53;;;;;;;20.17;5.93;;;;;;;11.63;67.46;92033.47;5009686;28;20048;-80
2022/03/31 02:34:21;;;;;;;19.85;5.05;;;;;;;11.76;67.84;92052.09;5009902;28;20045;-80
2022/03/31 02:36:48;;;;;;;14.10;4.90;;;;;;;11.20;67.62;91958.03;5009579;28;20052;-81
2022/03/31 02:39:15;;;;;;;16.45;4.45;;;;;;;11.94;67.01;92053.50;5010394;28;20437;-81
2022/03/31 02:41:42;;;;;;;15.40;4.70;;;;;;;11.96;67.21;92048.13;5010345;28;20045;-80
2022/03/31 02:44:09;;;;;;;15.93;4.18;;;;;;;11.76;66.94;92019.41;5010046;28;20810;-81
2022/03/31 02:46:36;;;;;;;23.65;4.90;;;;;;;11.91;67.46;92046.28;5009649;28;20467;-81
2022/03/31 02:49:04;;;;;;;16.13;4.72;;;;;;;11.84;67.29;92049.06;5009990;28;20050;-81
2022/03/31 02:51:32;;;;;;;20.48;4.22;;;;;;;11.94;67.78;92053.50;5009754;28;20149;-80
2022/03/31 02:56:43;;;;;;;18.17;5.35;;;;;;;11.99;67.66;92057.94;5010024;28;20513;-80
2022/03/31 02:59:10;;;;;;;18.83;5.22;;;;;;;11.82;67.97;92040.81;5010060;28;20046;-80
2022/03/31 03:01:37;;;;;;;10.80;3.92;;;;;;;11.88;68.02;92050.13;5009563;28;20042;-80
2022/03/31 03:04:04;;;;;;;17.77;4.65;;;;;;;12.00;68.15;92060.22;5009431;28;20533;-81
2022/03/31 03:06:32;;;;;;;12.32;4.28;;;;;;;11.86;67.53;92038.53;5009398;28;20441;-80
2022/03/31 03:08:59;;;;;;;17.15;5.03;;;;;;;12.00;67.59;92054.31;5010103;28;20037;-80
2022/03/31 03:11:26;;;;;;;13.68;4.15;;;;;;;12.02;67.92;92063.34;5010444;28;20046;-80
2022/03/31 03:13:53;;;;;;;15.13;4.75;;;;;;;11.94;67.55;92040.63;5009925;28;20046;-80
2022/03/31 03:16:20;;;;;;;16.05;4.80;;;;;;;11.66;68.35;92013.44;5010056;28;20064;-80
2022/03/31 03:18:46;;;;;;;17.63;5.13;;;;;;;11.80;67.96;92021.50;5009679;28;20050;-80
2022/03/31 03:21:14;;;;;;;18.50;4.28;;;;;;;11.83;68.81;92049.31;5009862;28;20046;-80
2022/03/31 03:23:43;;;;;;;13.38;5.50;;;;;;;11.95;68.75;92054.28;5009884;28;20133;-80
2022/03/31 03:26:09;;;;;;;19.13;6.05;;;;;;;11.93;68.73;92054.53;5009819;28;20045;-80
2022/03/31 03:28:37;;;;;;;12.57;4.88;;;;;;;11.86;68.73;92030.81;5009583;28;20056;-80
2022/03/31 03:31:04;;;;;;;15.60;4.32;;;;;;;11.94;68.79;92040.63;5009769;28;20056;-80
2022/03/31 03:33:32;;;;;;;18.10;4.50;;;;;;;11.76;69.22;92016.84;5009576;28;20454;-80
2022/03/31 03:35:59;;;;;;;15.57;5.00;;;;;;;11.92;69.10;92036.75;5009616;28;20483;-80
2022/03/31 03:38:26;;;;;;;19.50;5.18;;;;;;;11.86;69.86;92031.56;5009846;28;20410;-80
2022/03/31 03:40:55;;;;;;;16.17;5.32;;;;;;;11.84;69.76;92027.69;5009330;28;20475;-81
2022/03/31 03:43:22;;;;;;;16.10;4.70;;;;;;;11.74;69.57;92011.19;5008887;28;20046;-81
2022/03/31 03:45:49;;;;;;;17.58;5.95;;;;;;;11.87;69.55;92027.22;5009712;28;20697;-81
2022/03/31 03:48:16;;;;;;;16.48;4.97;;;;;;;11.77;69.90;92015.06;5009973;28;20054;-81
2022/03/31 03:50:44;;;;;;;24.75;7.15;;;;;;;11.72;69.51;92007.28;5008955;28;20041;-81
2022/03/31 03:53:10;;;;;;;24.67;5.28;;;;;;;11.77;70.12;92023.53;5009054;28;20118;-81
2022/03/31 03:55:39;;;;;;;15.32;5.30;;;;;;;11.72;70.03;92023.50;5009154;28;20050;-82
2022/03/31 03:58:08;;;;;;;14.85;4.22;;;;;;;11.50;70.13;91987.59;5008707;28;20068;-82
2022/03/31 04:00:35;;;;;;;23.98;5.43;;;;;;;11.77;70.44;92033.81;5012388;28;20065;-81
2022/03/31 04:03:02;;;;;;;17.70;5.05;;;;;;;11.74;70.47;92031.75;5008414;28;20075;-81
2022/03/31 04:05:29;;;;;;;18.25;6.05;;;;;;;11.46;71.26;92004.50;5012484;28;20050;-81
2022/03/31 04:07:56;;;;;;;16.52;5.60;;;;;;;11.67;71.35;92043.28;5012267;28;20046;-81
2022/03/31 04:10:23;;;;;;;15.52;5.53;;;;;;;11.68;71.35;92055.88;5012665;28;20049;-81
2022/03/31 04:12:50;;;;;;;22.52;5.22;;;;;;;11.61;70.98;92047.56;5012586;28;20045;-80
2022/03/31 04:15:18;;;;;;;17.25;5.70;;;;;;;11.72;71.30;92054.34;5012610;28;20546;-80
2022/03/31 04:17:45;;;;;;;18.58;5.63;;;;;;;11.75;71.09;92053.09;5016186;28;20050;-80
2022/03/31 04:20:13;;;;;;;15.95;6.20;;;;;;;11.83;71.03;92057.00;5013436;28;20046;-81
2022/03/31 04:22:41;;;;;;;14.88;5.18;;;;;;;11.56;72.49;92027.75;5011947;28;20498;-81
2022/03/31 04:25:09;;;;;;;17.42;5.60;;;;;;;11.85;74.39;92066.03;5011944;28;20052;-80
2022/03/31 04:27:37;;;;;;;15.32;5.25;;;;;;;11.75;75.14;92046.16;5012129;28;20104;-80
2022/03/31 04:30:06;;;;;;;15.95;5.60;;;;;;;11.85;79.36;92057.56;5011743;28;20048;-80
2022/03/31 04:32:34;;;;;;;18.55;4.95;;;;;;;11.80;81.16;92063.44;5011534;28;20048;-80
2022/03/31 04:35:01;;;;;;;14.25;5.25;;;;;;;11.58;83.66;92042.94;5011798;28;20042;-81
2022/03/31 04:37:28;;;;;;;19.95;5.85;;;;;;;11.39;83.67;92014.22;5011625;28;20084;-81
2022/03/31 04:39:55;;;;;;;21.20;5.82;;;;;;;11.59;84.34;92062.50;5011837;28;20042;-82
2022/03/31 04:42:22;;;;;;;14.95;5.35;;;;;;;11.34;85.72;92028.59;5011686;28;20419;-81
2022/03/31 04:44:49;;;;;;;17.50;5.80;;;;;;;11.27;86.10;92030.59;5009816;28;20372;-81
2022/03/31 04:47:16;;;;;;;15.40;6.25;;;;;;;11.17;87.96;92030.47;5009968;28;20096;-81
2022/03/31 04:49:44;;;;;;;21.35;6.53;;;;;;;11.23;89.22;92037.22;5011583;28;20054;-81
2022/03/31 04:52:11;;;;;;;22.67;6.00;;;;;;;11.03;89.65;92027.50;5011811;28;20049;-82
2022/03/31 04:54:43;;;;;;;20.45;5.75;;;;;;;11.16;89.07;92041.78;5011157;28;20104;-81
2022/03/31 04:57:11;;;;;;;18.50;5.13;;;;;;;11.11;89.31;92034.03;5010896;28;20094;-82
2022/03/31 04:59:38;;;;;;;15.77;5.40;;;;;;;11.05;90.21;92031.41;5011039;28;20402;-82
2022/03/31 05:02:05;;;;;;;20.42;6.32;;;;;;;11.15;89.57;92038.44;5011548;28;20046;-82
2022/03/31 05:04:32;;;;;;;19.38;5.70;;;;;;;11.13;88.55;92042.25;5011796;28;20446;-81
2022/03/31 05:07:00;;;;;;;16.83;5.63;;;;;;;11.00;86.09;92031.34;5011667;28;20153;-81
2022/03/31 05:09:27;;;;;;;22.58;6.68;;;;;;;11.03;85.36;92036.00;5011237;28;20049;-81
2022/03/31 05:11:55;;;;;;;28.52;8.07;;;;;;;11.14;85.10;92059.22;5011189;28;20075;-81
2022/03/31 05:14:22;;;;;;;24.85;7.25;;;;;;;10.93;84.25;92028.19;5010947;28;20041;-81
2022/03/31 05:16:49;;;;;;;22.23;8.20;;;;;;;11.06;85.49;92053.50;5011160;28;20406;-81
2022/03/31 05:19:16;;;;;;;22.98;7.72;;;;;;;10.94;87.28;92042.59;5011053;28;20050;-81
2022/03/31 05:21:43;;;;;;;20.48;6.72;;;;;;;10.94;90.37;92066.47;5010665;28;20046;-79
2022/03/31 05:24:11;;;;;;;19.38;7.13;;;;;;;10.80;92.67;92044.75;5010363;28;20049;-80
2022/03/31 05:26:38;;;;;;;20.83;5.65;;;;;;;10.81;96.02;92070.19;5010898;28;20065;-80
2022/03/31 05:29:05;;;;;;;19.10;6.88;;;;;;;10.63;97.12;92070.47;5010895;28;20050;-81
2022/03/31 05:31:32;;;;;;;21.08;7.03;;;;;;;10.63;98.69;92080.75;5010390;28;20048;-80
2022/03/31 05:33:59;;;;;;;21.98;7.75;;;;;;;10.54;100.00;92091.44;5010460;28;20384;-82
2022/03/31 05:36:25;;;;;;;19.65;6.70;;;;;;;10.32;100.00;92059.78;5010814;28;20046;-81
2022/03/31 05:38:52;;;;;;;19.35;6.93;;;;;;;10.37;100.00;92068.31;5010908;28;20052;-82
2022/03/31 05:41:21;;;;;;;25.92;8.25;;;;;;;10.37;100.00;92091.41;5010938;28;20077;-81
2022/03/31 05:43:47;;;;;;;21.58;7.88;;;;;;;10.43;100.00;92077.66;5010343;28;20135;-80
2022/03/31 05:46:14;;;;;;;20.90;6.78;;;;;;;10.21;100.00;92025.50;5010241;28;20495;-82
2022/03/31 05:48:41;;;;;;;23.50;7.35;;;;;;;10.26;100.00;92046.88;5011010;28;20054;-81
2022/03/31 05:51:08;;;;;;;21.58;7.40;;;;;;;10.37;100.00;92047.03;5010886;28;20402;-80
2022/03/31 05:53:35;;;;;;;29.00;10.13;;;;;;;10.37;100.00;92036.75;5010837;28;20049;-82
2022/03/31 05:56:02;;;;;;;23.92;9.52;;;;;;;9.90;100.00;91951.47;5009904;28;20502;-81
2022/03/31 05:58:30;;;;;;;42.00;21.23;;;;;;;10.14;100.00;91967.41;5010157;28;20042;-81
2022/03/31 06:00:57;;;;;;;28.02;10.63;;;;;;;10.21;100.00;91964.69;5009975;28;20052;-81
2022/03/31 06:03:24;;;;;;;26.60;10.93;;;;;;;10.50;100.00;92010.75;5010114;28;20078;-82
2022/03/31 06:05:51;;;;;;;22.95;8.88;;;;;;;10.12;100.00;91923.28;5009963;28;20071;-83
2022/03/31 06:08:19;;;;;;;22.85;8.02;;;;;;;10.40;100.00;91944.63;5010042;28;20053;-83
2022/03/31 06:10:46;;;;;;;22.05;8.32;;;;;;;10.35;100.00;91933.53;5010405;28;20058;-82
2022/03/31 06:13:13;;;;;;;26.35;7.90;;;;;;;10.37;100.00;91926.38;5009932;28;20057;-83
2022/03/31 06:15:42;;;;;;;21.20;9.10;;;;;;;10.71;100.00;91967.34;5009944;28;20053;-84
2022/03/31 06:18:09;;;;;;;24.23;8.07;;;;;;;10.82;100.00;91969.00;5009699;28;20073;-82
2022/03/31 06:20:36;;;;;;;24.00;7.22;;;;;;;10.65;100.00;91958.78;5009714;28;20470;-83
2022/03/31 06:23:03;;;;;;;21.05;8.70;;;;;;;10.50;100.00;91969.66;5009307;28;20426;-82
2022/03/31 06:25:31;;;;;;;23.15;8.98;;;;;;;10.70;100.00;92001.75;5009540;28;20061;-83
2022/03/31 06:27:58;;;;;;;34.05;14.35;;;;;;;10.99;100.00;92040.06;5009500;28;20558;-83
2022/03/31 06:30:25;;;;;;;41.85;18.77;;;;;;;10.65;100.00;91997.31;5010007;28;20081;-83
2022/03/31 06:32:53;;;;;;;70.93;27.90;;;;;;;11.12;100.00;92049.22;5009796;28;20042;-82
2022/03/31 06:35:21;;;;;;;68.90;27.55;;;;;;;10.98;100.00;92024.88;5009815;28;20046;-82
2022/03/31 06:37:49;;;;;;;57.13;26.42;;;;;;;11.19;100.00;92047.22;5009760;28;20045;-83
2022/03/31 06:40:18;;;;;;;34.70;14.80;;;;;;;11.26;100.00;92064.25;5009880;28;20508;-83
2022/03/31 06:42:47;;;;;;;35.55;15.43;;;;;;;10.94;100.00;92007.38;5009675;28;20038;-83
2022/03/31 06:45:17;;;;;;;33.75;14.20;;;;;;;11.56;100.00;92062.97;5009702;28;20495;-84
2022/03/31 06:47:44;;;;;;;22.77;9.10;;;;;;;11.41;100.00;92027.59;5009297;28;20057;-83
2022/03/31 06:50:13;;;;;;;31.42;14.32;;;;;;;11.36;100.00;92000.06;5009388;28;20072;-83
2022/03/31 06:52:40;;;;;;;38.58;19.65;;;;;;;11.83;100.00;92039.00;5009720;28;20049;-83
2022/03/31 06:55:08;;;;;;;44.08;20.98;;;;;;;11.84;100.00;92030.25;5009674;28;20053;-83
2022/03/31 06:57:36;;;;;;;34.22;17.75;;;;;;;12.00;99.77;92054.31;5009582;28;20049;-82
2022/03/31 07:00:03;;;;;;;24.35;9.00;;;;;;;12.05;99.05;92044.09;5009465;28;20052;-83
2022/03/31 07:02:30;;;;;;;23.40;10.60;;;;;;;11.92;97.89;92005.88;5009365;28;20399;-82
2022/03/31 07:04:57;;;;;;;26.95;10.07;;;;;;;12.27;97.05;92053.50;5009562;28;20487;-83
2022/03/31 07:07:25;;;;;;;30.17;9.30;;;;;;;12.23;96.36;92039.56;5013805;28;20062;-83
2022/03/31 07:09:53;;;;;;;27.48;8.25;;;;;;;12.12;94.00;92016.34;5010690;28;20054;-83
2022/03/31 07:12:20;;;;;;;23.80;7.80;;;;;;;12.17;94.38;92038.75;5009688;28;20052;-83
2022/03/31 07:14:47;;;;;;;29.67;9.27;;;;;;;12.29;93.18;92046.31;5009465;28;20050;-83
2022/03/31 07:17:14;;;;;;;21.67;8.85;;;;;;;12.34;93.68;92027.53;5009389;28;20046;-83
2022/03/31 07:19:41;;;;;;;71.03;33.15;;;;;;;12.68;94.62;92051.13;5008915;28;20046;-83
2022/03/31 07:22:08;;;;;;;39.72;17.83;;;;;;;12.63;92.26;92056.25;5009125;28;20069;-83
2022/03/31 07:24:36;;;;;;;31.80;13.07;;;;;;;12.04;92.69;91965.34;5009283;28;20038;-82
2022/03/31 07:27:04;;;;;;;35.63;13.20;;;;;;;12.77;93.30;92060.97;5009579;28;20042;-83
2022/03/31 07:29:31;;;;;;;29.10;12.13;;;;;;;12.36;92.79;92004.88;5009423;28;20042;-83
2022/03/31 07:31:58;;;;;;;40.83;17.42;;;;;;;12.78;93.63;92054.78;5009723;28;20050;-82
2022/03/31 07:34:25;;;;;;;26.60;10.70;;;;;;;12.86;92.06;92046.56;5011285;28;20046;-83
2022/03/31 07:36:53;;;;;;;26.33;7.53;;;;;;;12.86;91.47;92074.91;5013399;28;20399;-82
2022/03/31 07:39:20;;;;;;;22.80;7.50;;;;;;;12.62;91.90;92049.56;5013164;28;20479;-82
2022/03/31 07:41:49;;;;;;;23.27;7.72;;;;;;;12.75;91.46;92053.50;5013117;28;20053;-83
2022/03/31 07:44:16;;;;;;;28.75;8.13;;;;;;;12.65;91.04;92058.59;5012826;28;20164;-83
2022/03/31 07:46:43;;;;;;;19.45;7.25;;;;;;;12.83;91.17;92065.88;5012171;28;20042;-82
2022/03/31 07:49:10;;;;;;;21.75;7.25;;;;;;;13.00;90.94;92087.34;5012503;28;20069;-82
2022/03/31 07:51:37;;;;;;;27.13;10.00;;;;;;;12.94;90.97;92053.81;5012580;28;20050;-83
2022/03/31 07:54:04;;;;;;;30.77;8.50;;;;;;;12.67;90.04;92007.59;5012241;28;20042;-83
2022/03/31 07:56:31;;;;;;;23.08;8.25;;;;;;;13.07;88.73;92055.16;5012056;28;20506;-83
2022/03/31 07:58:59;;;;;;;31.83;13.63;;;;;;;13.35;89.54;92058.31;5012231;28;20048;-83
2022/03/31 08:01:26;;;;;;;41.53;17.05;;;;;;;13.16;87.14;91993.56;5012589;28;20060;-83
2022/03/31 08:03:53;;;;;;;49.55;18.60;;;;;;;13.58;85.50;92048.59;5012257;28;20129;-83
2022/03/31 08:06:21;;;;;;;79.32;34.70;;;;;;;13.78;85.32;92078.00;5011902;28;20045;-83
2022/03/31 08:08:49;;;;;;;91.60;37.90;;;;;;;13.70;84.49;92074.13;5012482;28;20054;-82
2022/03/31 08:11:16;;;;;;;65.32;25.98;;;;;;;13.47;84.58;92072.81;5012258;28;20045;-82
2022/03/31 08:13:43;;;;;;;86.07;32.67;;;;;;;13.48;85.06;92076.94;5012143;28;20052;-82
2022/03/31 08:16:11;;;;;;;70.00;31.15;;;;;;;13.31;85.23;92071.97;5011748;28;20049;-82
2022/03/31 08:18:38;;;;;;;80.13;33.55;;;;;;;13.08;85.72;92036.09;5012050;28;20053;-81
2022/03/31 08:21:05;;;;;;;71.45;29.30;;;;;;;13.30;86.98;92078.94;5011989;28;20387;-82
2022/03/31 08:23:32;;;;;;;111.47;38.63;;;;;;;13.23;87.53;92052.59;5011521;28;20136;-83
2022/03/31 08:25:59;;;;;;;116.47;40.83;;;;;;;13.52;86.35;92048.81;5012031;28;21408;-82
2022/03/31 08:28:29;;;;;;;126.13;43.72;;;;;;;13.56;86.39;92048.06;5011600;28;20049;-83
2022/03/31 08:30:56;;;;;;;50.25;17.85;;;;;;;13.54;85.05;92002.91;5011512;28;20049;-82
2022/03/31 08:33:24;;;;;;;181.25;66.32;;;;;;;13.69;83.82;92020.97;5011774;28;20124;-82
2022/03/31 08:35:51;;;;;;;81.25;33.33;;;;;;;14.05;83.57;92016.81;5011938;28;20049;-83
2022/03/31 08:38:18;;;;;;;83.72;33.08;;;;;;;14.16;81.65;92001.06;5012016;28;20050;-83
2022/03/31 08:40:45;;;;;;;34.83;11.05;;;;;;;13.90;80.23;91948.69;5012560;28;20041;-82
2022/03/31 08:43:12;;;;;;;46.92;18.63;;;;;;;13.96;78.85;91957.19;5012133;28;20431;-82
2022/03/31 08:45:42;;;;;;;66.38;24.23;;;;;;;14.09;77.64;91964.41;5011923;28;20053;-82
2022/03/31 08:48:10;;;;;;;51.03;20.65;;;;;;;14.02;77.55;91972.41;5012139;28;20042;-82
2022/03/31 08:50:39;;;;;;;25.88;9.55;;;;;;;14.26;77.51;92012.41;5012003;28;20046;-81
2022/03/31 08:53:06;;;;;;;22.63;8.70;;;;;;;13.71;77.99;91945.88;5011826;28;20050;-82
2022/03/31 08:55:33;;;;;;;26.52;10.10;;;;;;;14.11;78.17;92024.31;5011982;28;20093;-83
2022/03/31 08:58:01;;;;;;;23.25;7.20;;;;;;;13.66;79.00;91948.47;5011786;28;20053;-83
2022/03/31 09:00:29;;;;;;;21.90;6.85;;;;;;;14.02;78.09;92013.72;5011638;28;20071;-82
2022/03/31 09:03:01;;;;;;;16.77;6.03;;;;;;;13.78;77.94;91956.72;4637434;28;10000522;-82
2022/03/31 09:05:29;;;;;;;22.83;7.63;;;;;;;14.13;78.35;92004.16;4990971;28;20053;-83
2022/03/31 09:08:00;;;;;;;25.02;7.68;;;;;;;14.39;76.83;92027.34;4992100;28;20081;-82
2022/03/31 09:10:32;;;;;;;26.98;7.38;;;;;;;14.37;77.06;92049.31;4992222;28;20050;-83
2022/03/31 09:13:01;;;;;;;26.30;7.60;;;;;;;13.84;76.73;91963.41;4991907;28;20546;-83
2022/03/31 09:15:29;;;;;;;17.05;6.50;;;;;;;14.38;76.44;92054.22;4991935;28;20451;-83
2022/03/31 09:17:57;;;;;;;23.90;6.15;;;;;;;14.21;76.16;92035.66;4992048;28;20383;-83
2022/03/31 09:20:24;;;;;;;23.88;7.45;;;;;;;14.25;76.75;92055.53;4991976;28;20050;-84
2022/03/31 09:22:51;;;;;;;28.00;6.72;;;;;;;13.87;76.82;91977.59;4991638;28;20061;-82
2022/03/31 09:25:28;;;;;;;29.17;6.65;;;;;;;14.10;77.00;92009.06;4992163;28;20109;-83
2022/03/31 09:27:56;;;;;;;22.80;6.05;;;;;;;14.37;76.41;92013.94;4991399;28;20140;-82
2022/03/31 09:30:24;;;;;;;24.33;5.72;;;;;;;14.03;75.91;91934.47;4991390;28;20042;-83
2022/03/31 09:32:52;;;;;;;21.83;7.45;;;;;;;14.65;75.42;92000.66;4987762;28;20141;-83
2022/03/31 09:35:24;;;;;;;22.88;5.88;;;;;;;14.75;73.98;91992.91;4989638;28;20101;-83
2022/03/31 09:37:51;;;;;;;25.08;6.78;;;;;;;14.88;73.90;91981.22;4990844;28;20570;-83
2022/03/31 09:40:20;;;;;;;26.52;6.22;;;;;;;14.94;73.38;91964.63;4980479;28;20046;-82
2022/03/31 09:42:59;;;;;;;22.90;6.80;;;;;;;15.15;71.71;91974.84;4990534;28;20129;-81
2022/03/31 09:45:38;;;;;;;21.40;4.75;;;;;;;14.92;71.54;91938.28;4991061;28;20396;-82
2022/03/31 09:48:08;;;;;;;21.20;4.72;;;;;;;14.87;71.30;91916.84;4991199;28;20054;-82
2022/03/31 09:50:36;;;;;;;14.70;5.90;;;;;;;15.36;71.13;91965.16;4991364;28;20062;-82
2022/03/31 09:53:04;;;;;;;23.52;6.57;;;;;;;15.23;70.51;91963.19;4991153;28;20054;-82
2022/03/31 09:55:31;;;;;;;29.17;6.32;;;;;;;15.29;70.86;91966.50;4990581;28;20047;-81
2022/03/31 09:57:59;;;;;;;21.23;5.60;;;;;;;15.42;69.59;91985.81;4990615;28;20038;-82
2022/03/31 10:00:26;;;;;;;30.73;5.95;;;;;;;14.74;68.91;91877.59;4991445;28;20050;-83
2022/03/31 10:02:54;;;;;;;18.08;5.65;;;;;;;14.93;68.80;91913.97;4990706;28;20141;-83
2022/03/31 10:05:22;;;;;;;29.60;7.55;;;;;;;15.03;69.46;91922.69;4990481;28;20058;-83
2022/03/31 10:07:52;;;;;;;24.02;6.43;;;;;;;14.81;68.85;91908.31;4990606;28;20065;-82
2022/03/31 10:10:19;;;;;;;21.45;5.65;;;;;;;15.00;68.79;91931.75;4990805;28;20506;-83
2022/03/31 10:12:54;;;;;;;23.48;5.82;;;;;;;14.43;69.25;91873.38;4990428;28;20054;-83
2022/03/31 10:15:30;;;;;;;26.27;5.30;;;;;;;14.73;69.26;91899.31;4990670;28;20128;-82
2022/03/31 10:17:57;;;;;;;24.60;6.45;;;;;;;14.88;69.41;91939.84;4988198;28;20046;-83
2022/03/31 10:20:24;;;;;;;19.23;4.82;;;;;;;14.98;69.66;91956.31;4988237;28;20061;-83
2022/03/31 10:25:42;;;;;;;22.98;4.97;;;;;;;14.91;69.59;91947.06;4990758;28;20061;-84
2022/03/31 10:28:11;;;;;;;23.67;5.53;;;;;;;14.80;69.71;91936.00;4990496;28;20488;-84
2022/03/31 10:30:53;;;;;;;21.80;5.28;;;;;;;14.30;69.54;91858.44;4990753;28;20042;-83
2022/03/31 10:33:29;;;;;;;19.70;5.57;;;;;;;14.24;69.93;91844.00;4990687;28;20137;-82
2022/03/31 10:36:10;;;;;;;20.60;5.28;;;;;;;14.88;69.56;91916.56;4990716;28;20491;-83
2022/03/31 10:38:38;;;;;;;25.15;6.10;;;;;;;14.84;69.56;91889.72;4990468;28;20760;-84
2022/03/31 10:41:11;;;;;;;23.38;5.53;;;;;;;15.12;68.89;91902.97;4990608;28;20078;-83
2022/03/31 10:43:45;;;;;;;22.67;5.60;;;;;;;14.81;68.28;91830.78;4990350;28;20451;-83
2022/03/31 10:46:18;;;;;;;20.60;4.90;;;;;;;15.10;67.92;91856.69;4990513;28;20050;-83
2022/03/31 10:48:51;;;;;;;21.13;5.85;;;;;;;15.23;68.12;91868.22;4990591;28;20539;-83
2022/03/31 10:51:18;;;;;;;24.35;4.32;;;;;;;14.96;67.65;91791.13;4990529;28;20082;-82
2022/03/31 10:53:50;;;;;;;26.40;4.82;;;;;;;15.59;67.39;91871.53;4990119;28;20392;-83
2022/03/31 10:56:20;;;;;;;15.55;4.78;;;;;;;15.69;66.57;91863.66;4990013;28;20050;-83
2022/03/31 10:58:49;;;;;;;16.63;4.82;;;;;;;15.82;65.87;91853.69;4990306;28;20056;-83
2022/03/31 11:01:18;;;;;;;19.35;5.10;;;;;;;15.81;64.23;91821.09;4990240;28;20042;-83
2022/03/31 11:03:46;;;;;;;19.80;5.07;;;;;;;15.59;63.78;91773.19;4990506;28;20048;-83
2022/03/31 11:06:13;;;;;;;21.38;6.30;;;;;;;16.12;63.00;91821.53;4990298;28;20054;-83
2022/03/31 11:08:41;;;;;;;29.00;5.55;;;;;;;16.39;62.71;91847.91;4992128;28;20151;-82
2022/03/31 11:11:09;;;;;;;22.88;5.65;;;;;;;16.60;62.13;91835.44;4994679;28;20042;-82
2022/03/31 11:13:36;;;;;;;24.83;6.65;;;;;;;16.41;61.17;91820.69;4993811;28;20495;-83
2022/03/31 11:16:04;;;;;;;34.75;8.25;;;;;;;16.56;61.21;91811.91;4993886;28;20050;-82
2022/03/31 11:18:32;;;;;;;21.98;6.82;;;;;;;16.40;60.88;91811.34;4993960;28;20050;-82
2022/03/31 11:21:01;;;;;;;27.35;6.97;;;;;;;16.46;60.95;91816.44;4993973;28;20051;-81
2022/03/31 11:23:30;;;;;;;28.05;7.53;;;;;;;16.20;63.27;91807.19;4991523;28;20054;-83
2022/03/31 11:25:58;;;;;;;25.58;6.20;;;;;;;16.04;64.47;91801.44;4992346;28;20049;-82
2022/03/31 11:28:29;;;;;;;23.52;5.15;;;;;;;15.99;64.90;91797.09;4993155;28;20053;-81
2022/03/31 11:30:58;;;;;;;21.45;5.38;;;;;;;16.05;65.34;91848.84;4993598;28;20055;-82
2022/03/31 11:33:36;;;;;;;24.67;5.82;;;;;;;16.12;65.48;91850.03;4993181;28;20554;-83
2022/03/31 11:36:03;;;;;;;27.05;5.93;;;;;;;15.88;66.00;91860.41;4993187;28;20097;-83
2022/03/31 11:38:31;;;;;;;58.45;9.18;;;;;;;15.73;66.68;91848.34;4993161;28;20073;-83
2022/03/31 11:40:58;;;;;;;32.70;5.60;;;;;;;15.88;67.33;91883.69;4993390;28;20565;-83
2022/03/31 11:43:25;;;;;;;21.35;5.22;;;;;;;15.88;67.97;91870.75;4993308;28;20485;-83